sensor_id;sensor_type;location;lat;lon;timestamp;temperature;humidity
48515;DHT22;34309;47.260;2.796;2022-08-01T00:01:53;26.90;29.20
48515;DHT22;34309;47.260;2.796;2022-08-01T00:04:19;26.90;28.90
48515;DHT22;34309;47.260;2.796;2022-08-01T00:06:44;26.90;29.20
48515;DHT22;34309;47.260;2.796;2022-08-01T00:09:10;26.90;29.00
48515;DHT22;34309;47.260;2.796;2022-08-01T00:11:36;26.90;29.00
48515;DHT22;34309;47.260;2.796;2022-08-01T00:14:02;26.90;29.20
48515;DHT22;34309;47.260;2.796;2022-08-01T00:16:27;26.90;29.30
48515;DHT22;34309;47.260;2.796;2022-08-01T00:18:53;26.90;29.30
48515;DHT22;34309;47.260;2.796;2022-08-01T00:21:19;26.90;29.40
48515;DHT22;34309;47.260;2.796;2022-08-01T00:23:45;26.90;29.40
48515;DHT22;34309;47.260;2.796;2022-08-01T00:26:12;26.90;29.50
48515;DHT22;34309;47.260;2.796;2022-08-01T00:28:38;26.90;29.50
48515;DHT22;34309;47.260;2.796;2022-08-01T00:31:04;26.90;29.20
48515;DHT22;34309;47.260;2.796;2022-08-01T00:33:30;26.90;29.50
48515;DHT22;34309;47.260;2.796;2022-08-01T00:35:55;26.90;29.40
48515;DHT22;34309;47.260;2.796;2022-08-01T00:38:21;26.90;29.50
48515;DHT22;34309;47.260;2.796;2022-08-01T00:40:48;26.90;29.50
48515;DHT22;34309;47.260;2.796;2022-08-01T00:43:14;26.90;29.50
48515;DHT22;34309;47.260;2.796;2022-08-01T00:45:40;26.90;29.50
48515;DHT22;34309;47.260;2.796;2022-08-01T00:48:06;26.90;29.50
48515;DHT22;34309;47.260;2.796;2022-08-01T00:50:32;26.90;29.60
48515;DHT22;34309;47.260;2.796;2022-08-01T00:52:59;26.90;29.60
48515;DHT22;34309;47.260;2.796;2022-08-01T00:55:29;26.90;29.50
48515;DHT22;34309;47.260;2.796;2022-08-01T00:57:56;26.90;29.50
48515;DHT22;34309;47.260;2.796;2022-08-01T01:00:22;26.90;29.50
48515;DHT22;34309;47.260;2.796;2022-08-01T01:02:48;26.90;29.50
48515;DHT22;34309;47.260;2.796;2022-08-01T01:05:14;26.90;29.50
48515;DHT22;34309;47.260;2.796;2022-08-01T01:08:02;26.90;29.50
48515;DHT22;34309;47.260;2.796;2022-08-01T01:13:40;26.90;29.50
48515;DHT22;34309;47.260;2.796;2022-08-01T01:16:12;26.80;29.50
48515;DHT22;34309;47.260;2.796;2022-08-01T01:19:10;26.90;29.50
48515;DHT22;34309;47.260;2.796;2022-08-01T01:21:46;26.80;29.50
48515;DHT22;34309;47.260;2.796;2022-08-01T01:24:21;26.80;29.50
48515;DHT22;34309;47.260;2.796;2022-08-01T01:27:06;26.90;29.50
48515;DHT22;34309;47.260;2.796;2022-08-01T01:29:49;26.80;29.50
48515;DHT22;34309;47.260;2.796;2022-08-01T01:34:52;26.90;29.50
48515;DHT22;34309;47.260;2.796;2022-08-01T01:37:23;26.90;29.50
48515;DHT22;34309;47.260;2.796;2022-08-01T01:39:51;26.90;30.00
48515;DHT22;34309;47.260;2.796;2022-08-01T01:42:19;26.80;29.50
48515;DHT22;34309;47.260;2.796;2022-08-01T01:44:46;26.80;29.50
48515;DHT22;34309;47.260;2.796;2022-08-01T01:47:13;26.90;29.50
48515;DHT22;34309;47.260;2.796;2022-08-01T01:49:41;26.80;29.50
48515;DHT22;34309;47.260;2.796;2022-08-01T01:52:09;26.80;29.50
48515;DHT22;34309;47.260;2.796;2022-08-01T01:54:41;26.90;29.60
48515;DHT22;34309;47.260;2.796;2022-08-01T01:57:18;26.80;29.50
48515;DHT22;34309;47.260;2.796;2022-08-01T01:59:51;26.80;29.50
48515;DHT22;34309;47.260;2.796;2022-08-01T02:02:22;26.80;29.50
48515;DHT22;34309;47.260;2.796;2022-08-01T02:04:48;26.80;29.50
48515;DHT22;34309;47.260;2.796;2022-08-01T02:07:19;26.80;29.50
48515;DHT22;34309;47.260;2.796;2022-08-01T02:09:47;26.80;29.50
48515;DHT22;34309;47.260;2.796;2022-08-01T02:12:14;26.80;29.50
48515;DHT22;34309;47.260;2.796;2022-08-01T02:14:42;26.80;29.50
48515;DHT22;34309;47.260;2.796;2022-08-01T02:17:11;26.80;29.50
48515;DHT22;34309;47.260;2.796;2022-08-01T02:19:38;26.80;29.50
48515;DHT22;34309;47.260;2.796;2022-08-01T02:27:38;26.80;29.50
48515;DHT22;34309;47.260;2.796;2022-08-01T02:30:07;26.80;29.50
48515;DHT22;34309;47.260;2.796;2022-08-01T02:32:41;26.80;29.50
48515;DHT22;34309;47.260;2.796;2022-08-01T02:35:32;26.80;29.50
48515;DHT22;34309;47.260;2.796;2022-08-01T02:38:00;26.80;29.50
48515;DHT22;34309;47.260;2.796;2022-08-01T02:40:28;26.80;29.50
48515;DHT22;34309;47.260;2.796;2022-08-01T02:42:56;26.80;29.50
48515;DHT22;34309;47.260;2.796;2022-08-01T02:45:25;26.80;29.60
48515;DHT22;34309;47.260;2.796;2022-08-01T02:47:55;26.80;29.60
48515;DHT22;34309;47.260;2.796;2022-08-01T02:50:23;26.80;29.60
48515;DHT22;34309;47.260;2.796;2022-08-01T02:52:51;26.80;29.70
48515;DHT22;34309;47.260;2.796;2022-08-01T02:55:18;26.80;29.60
48515;DHT22;34309;47.260;2.796;2022-08-01T02:57:45;26.80;29.60
48515;DHT22;34309;47.260;2.796;2022-08-01T03:00:15;26.80;29.60
48515;DHT22;34309;47.260;2.796;2022-08-01T03:02:41;26.80;29.60
48515;DHT22;34309;47.260;2.796;2022-08-01T03:05:10;26.80;29.60
48515;DHT22;34309;47.260;2.796;2022-08-01T03:07:37;26.80;29.60
48515;DHT22;34309;47.260;2.796;2022-08-01T03:10:05;26.70;29.80
48515;DHT22;34309;47.260;2.796;2022-08-01T03:12:33;26.80;29.80
48515;DHT22;34309;47.260;2.796;2022-08-01T03:15:00;26.80;29.50
48515;DHT22;34309;47.260;2.796;2022-08-01T03:17:29;26.80;29.70
48515;DHT22;34309;47.260;2.796;2022-08-01T03:19:57;26.80;29.90
48515;DHT22;34309;47.260;2.796;2022-08-01T03:22:25;26.80;29.80
48515;DHT22;34309;47.260;2.796;2022-08-01T03:24:54;26.70;29.70
48515;DHT22;34309;47.260;2.796;2022-08-01T03:27:23;26.80;29.90
48515;DHT22;34309;47.260;2.796;2022-08-01T03:29:51;26.70;29.90
48515;DHT22;34309;47.260;2.796;2022-08-01T03:32:18;26.70;29.80
48515;DHT22;34309;47.260;2.796;2022-08-01T03:34:45;26.70;30.00
48515;DHT22;34309;47.260;2.796;2022-08-01T03:37:17;26.70;29.80
48515;DHT22;34309;47.260;2.796;2022-08-01T03:39:52;26.70;29.90
48515;DHT22;34309;47.260;2.796;2022-08-01T03:42:24;26.70;29.90
48515;DHT22;34309;47.260;2.796;2022-08-01T03:44:57;26.70;29.80
48515;DHT22;34309;47.260;2.796;2022-08-01T03:47:31;26.70;30.00
48515;DHT22;34309;47.260;2.796;2022-08-01T03:49:58;26.70;29.80
48515;DHT22;34309;47.260;2.796;2022-08-01T03:52:25;26.70;29.90
48515;DHT22;34309;47.260;2.796;2022-08-01T03:54:55;26.70;29.70
48515;DHT22;34309;47.260;2.796;2022-08-01T03:57:23;26.70;29.90
48515;DHT22;34309;47.260;2.796;2022-08-01T03:59:49;26.70;29.90
48515;DHT22;34309;47.260;2.796;2022-08-01T04:02:15;26.70;30.00
48515;DHT22;34309;47.260;2.796;2022-08-01T04:04:42;26.70;29.90
48515;DHT22;34309;47.260;2.796;2022-08-01T04:07:27;26.70;29.90
48515;DHT22;34309;47.260;2.796;2022-08-01T04:09:53;26.70;29.80
48515;DHT22;34309;47.260;2.796;2022-08-01T04:12:19;26.70;29.90
48515;DHT22;34309;47.260;2.796;2022-08-01T04:14:46;26.70;29.90
48515;DHT22;34309;47.260;2.796;2022-08-01T04:17:11;26.60;29.80
48515;DHT22;34309;47.260;2.796;2022-08-01T04:19:37;26.70;29.80
48515;DHT22;34309;47.260;2.796;2022-08-01T04:22:04;26.70;30.00
48515;DHT22;34309;47.260;2.796;2022-08-01T04:24:31;26.70;30.00
48515;DHT22;34309;47.260;2.796;2022-08-01T04:26:58;26.70;29.90
48515;DHT22;34309;47.260;2.796;2022-08-01T04:29:27;26.70;29.90
48515;DHT22;34309;47.260;2.796;2022-08-01T04:31:55;26.70;29.90
48515;DHT22;34309;47.260;2.796;2022-08-01T04:34:25;26.70;30.00
48515;DHT22;34309;47.260;2.796;2022-08-01T04:36:52;26.70;29.90
48515;DHT22;34309;47.260;2.796;2022-08-01T04:39:20;26.60;29.70
48515;DHT22;34309;47.260;2.796;2022-08-01T04:41:47;26.60;29.70
48515;DHT22;34309;47.260;2.796;2022-08-01T04:44:14;26.70;29.90
48515;DHT22;34309;47.260;2.796;2022-08-01T04:46:40;26.60;29.90
48515;DHT22;34309;47.260;2.796;2022-08-01T04:49:07;26.70;30.00
48515;DHT22;34309;47.260;2.796;2022-08-01T04:51:34;26.60;29.80
48515;DHT22;34309;47.260;2.796;2022-08-01T04:54:01;26.60;29.90
48515;DHT22;34309;47.260;2.796;2022-08-01T04:56:26;26.60;30.00
48515;DHT22;34309;47.260;2.796;2022-08-01T04:58:52;26.60;30.50
48515;DHT22;34309;47.260;2.796;2022-08-01T05:01:38;26.60;29.90
48515;DHT22;34309;47.260;2.796;2022-08-01T05:04:04;26.60;29.80
48515;DHT22;34309;47.260;2.796;2022-08-01T05:06:29;26.60;29.80
48515;DHT22;34309;47.260;2.796;2022-08-01T05:08:55;26.60;29.70
48515;DHT22;34309;47.260;2.796;2022-08-01T05:11:21;26.60;29.80
48515;DHT22;34309;47.260;2.796;2022-08-01T05:13:48;26.60;29.90
48515;DHT22;34309;47.260;2.796;2022-08-01T05:16:14;26.60;29.90
48515;DHT22;34309;47.260;2.796;2022-08-01T05:18:39;26.60;29.90
48515;DHT22;34309;47.260;2.796;2022-08-01T05:21:05;26.60;29.90
48515;DHT22;34309;47.260;2.796;2022-08-01T05:23:31;26.60;29.80
48515;DHT22;34309;47.260;2.796;2022-08-01T05:25:57;26.60;29.90
48515;DHT22;34309;47.260;2.796;2022-08-01T05:28:23;26.60;30.00
48515;DHT22;34309;47.260;2.796;2022-08-01T05:30:49;26.60;30.00
48515;DHT22;34309;47.260;2.796;2022-08-01T05:33:14;26.60;30.00
48515;DHT22;34309;47.260;2.796;2022-08-01T05:35:40;26.60;30.00
48515;DHT22;34309;47.260;2.796;2022-08-01T05:38:06;26.60;29.90
48515;DHT22;34309;47.260;2.796;2022-08-01T05:40:31;26.60;30.00
48515;DHT22;34309;47.260;2.796;2022-08-01T05:42:57;26.60;29.90
48515;DHT22;34309;47.260;2.796;2022-08-01T05:45:23;26.60;29.80
48515;DHT22;34309;47.260;2.796;2022-08-01T05:47:49;26.60;29.90
48515;DHT22;34309;47.260;2.796;2022-08-01T05:50:14;26.60;30.10
48515;DHT22;34309;47.260;2.796;2022-08-01T05:52:40;26.60;30.00
48515;DHT22;34309;47.260;2.796;2022-08-01T05:55:06;26.60;29.90
48515;DHT22;34309;47.260;2.796;2022-08-01T05:57:32;26.60;29.90
48515;DHT22;34309;47.260;2.796;2022-08-01T05:59:58;26.60;29.90
48515;DHT22;34309;47.260;2.796;2022-08-01T06:02:23;26.60;29.80
48515;DHT22;34309;47.260;2.796;2022-08-01T06:04:49;26.60;30.00
48515;DHT22;34309;47.260;2.796;2022-08-01T06:07:15;26.60;30.10
48515;DHT22;34309;47.260;2.796;2022-08-01T06:09:42;26.60;30.10
48515;DHT22;34309;47.260;2.796;2022-08-01T06:12:07;26.50;30.00
48515;DHT22;34309;47.260;2.796;2022-08-01T06:14:33;26.50;30.00
48515;DHT22;34309;47.260;2.796;2022-08-01T06:16:59;26.50;30.10
48515;DHT22;34309;47.260;2.796;2022-08-01T06:19:24;26.60;30.10
48515;DHT22;34309;47.260;2.796;2022-08-01T06:21:51;26.50;30.00
48515;DHT22;34309;47.260;2.796;2022-08-01T06:24:17;26.50;30.00
48515;DHT22;34309;47.260;2.796;2022-08-01T06:26:42;26.50;29.90
48515;DHT22;34309;47.260;2.796;2022-08-01T06:29:08;26.50;30.00
48515;DHT22;34309;47.260;2.796;2022-08-01T06:31:34;26.50;30.20
48515;DHT22;34309;47.260;2.796;2022-08-01T06:34:00;26.50;30.00
48515;DHT22;34309;47.260;2.796;2022-08-01T06:36:25;26.50;30.10
48515;DHT22;34309;47.260;2.796;2022-08-01T06:38:51;26.50;30.30
48515;DHT22;34309;47.260;2.796;2022-08-01T06:41:17;26.50;30.20
48515;DHT22;34309;47.260;2.796;2022-08-01T06:43:43;26.50;30.30
48515;DHT22;34309;47.260;2.796;2022-08-01T06:46:08;26.50;30.30
48515;DHT22;34309;47.260;2.796;2022-08-01T06:48:34;26.50;30.20
48515;DHT22;34309;47.260;2.796;2022-08-01T06:51:04;26.50;30.10
48515;DHT22;34309;47.260;2.796;2022-08-01T06:53:34;26.50;30.10
48515;DHT22;34309;47.260;2.796;2022-08-01T06:56:00;26.50;30.10
48515;DHT22;34309;47.260;2.796;2022-08-01T06:58:26;26.50;30.20
48515;DHT22;34309;47.260;2.796;2022-08-01T07:00:52;26.50;30.40
48515;DHT22;34309;47.260;2.796;2022-08-01T07:03:17;26.50;30.20
48515;DHT22;34309;47.260;2.796;2022-08-01T07:05:43;26.50;30.40
48515;DHT22;34309;47.260;2.796;2022-08-01T07:08:09;26.50;30.30
48515;DHT22;34309;47.260;2.796;2022-08-01T07:10:34;26.50;30.40
48515;DHT22;34309;47.260;2.796;2022-08-01T07:13:00;26.50;30.10
48515;DHT22;34309;47.260;2.796;2022-08-01T07:15:26;26.60;30.30
48515;DHT22;34309;47.260;2.796;2022-08-01T07:17:52;26.50;30.20
48515;DHT22;34309;47.260;2.796;2022-08-01T07:20:18;26.50;30.10
48515;DHT22;34309;47.260;2.796;2022-08-01T07:22:44;26.50;30.20
48515;DHT22;34309;47.260;2.796;2022-08-01T07:25:09;26.50;30.30
48515;DHT22;34309;47.260;2.796;2022-08-01T07:27:36;26.50;30.30
48515;DHT22;34309;47.260;2.796;2022-08-01T07:30:04;26.50;30.40
48515;DHT22;34309;47.260;2.796;2022-08-01T07:32:30;26.50;30.40
48515;DHT22;34309;47.260;2.796;2022-08-01T07:34:56;26.50;30.60
48515;DHT22;34309;47.260;2.796;2022-08-01T07:37:22;26.50;30.50
48515;DHT22;34309;47.260;2.796;2022-08-01T07:39:49;26.50;30.70
48515;DHT22;34309;47.260;2.796;2022-08-01T07:42:15;26.50;30.60
48515;DHT22;34309;47.260;2.796;2022-08-01T07:44:40;26.50;30.70
48515;DHT22;34309;47.260;2.796;2022-08-01T07:47:06;26.50;30.70
48515;DHT22;34309;47.260;2.796;2022-08-01T07:49:32;26.50;30.60
48515;DHT22;34309;47.260;2.796;2022-08-01T07:51:58;26.60;30.60
48515;DHT22;34309;47.260;2.796;2022-08-01T07:54:24;26.50;30.60
48515;DHT22;34309;47.260;2.796;2022-08-01T07:56:50;26.50;30.60
48515;DHT22;34309;47.260;2.796;2022-08-01T07:59:16;26.50;31.00
48515;DHT22;34309;47.260;2.796;2022-08-01T08:01:48;26.60;31.00
48515;DHT22;34309;47.260;2.796;2022-08-01T08:04:15;26.50;31.60
48515;DHT22;34309;47.260;2.796;2022-08-01T08:06:40;26.50;30.70
48515;DHT22;34309;47.260;2.796;2022-08-01T08:09:06;26.50;31.50
48515;DHT22;34309;47.260;2.796;2022-08-01T08:11:32;26.50;31.70
48515;DHT22;34309;47.260;2.796;2022-08-01T08:13:58;26.60;31.90
48515;DHT22;34309;47.260;2.796;2022-08-01T08:16:23;26.50;31.80
48515;DHT22;34309;47.260;2.796;2022-08-01T08:18:49;26.60;31.90
48515;DHT22;34309;47.260;2.796;2022-08-01T08:21:15;26.50;32.00
48515;DHT22;34309;47.260;2.796;2022-08-01T08:23:40;26.50;32.00
48515;DHT22;34309;47.260;2.796;2022-08-01T08:26:25;26.60;32.10
48515;DHT22;34309;47.260;2.796;2022-08-01T08:28:52;26.60;32.30
48515;DHT22;34309;47.260;2.796;2022-08-01T08:31:17;26.60;32.20
48515;DHT22;34309;47.260;2.796;2022-08-01T08:33:43;26.60;32.20
48515;DHT22;34309;47.260;2.796;2022-08-01T08:36:09;26.60;32.20
48515;DHT22;34309;47.260;2.796;2022-08-01T08:38:36;26.60;32.10
48515;DHT22;34309;47.260;2.796;2022-08-01T08:41:02;26.60;32.20
48515;DHT22;34309;47.260;2.796;2022-08-01T08:43:28;26.60;32.30
48515;DHT22;34309;47.260;2.796;2022-08-01T08:45:53;26.60;32.90
48515;DHT22;34309;47.260;2.796;2022-08-01T08:48:20;26.50;31.90
48515;DHT22;34309;47.260;2.796;2022-08-01T08:50:48;26.60;32.30
48515;DHT22;34309;47.260;2.796;2022-08-01T08:53:15;26.50;32.10
48515;DHT22;34309;47.260;2.796;2022-08-01T08:55:42;26.60;32.20
48515;DHT22;34309;47.260;2.796;2022-08-01T08:58:12;26.60;32.40
48515;DHT22;34309;47.260;2.796;2022-08-01T09:00:41;26.60;32.30
48515;DHT22;34309;47.260;2.796;2022-08-01T09:03:07;26.60;32.40
48515;DHT22;34309;47.260;2.796;2022-08-01T09:05:33;26.60;32.30
48515;DHT22;34309;47.260;2.796;2022-08-01T09:07:59;26.60;32.40
48515;DHT22;34309;47.260;2.796;2022-08-01T09:10:25;26.60;32.40
48515;DHT22;34309;47.260;2.796;2022-08-01T09:13:07;26.60;32.50
48515;DHT22;34309;47.260;2.796;2022-08-01T09:15:50;26.60;32.60
48515;DHT22;34309;47.260;2.796;2022-08-01T09:18:33;26.60;32.40
48515;DHT22;34309;47.260;2.796;2022-08-01T09:23:32;26.60;32.50
48515;DHT22;34309;47.260;2.796;2022-08-01T09:25:58;26.60;32.50
48515;DHT22;34309;47.260;2.796;2022-08-01T09:28:30;26.60;32.50
48515;DHT22;34309;47.260;2.796;2022-08-01T09:30:59;26.60;32.50
48515;DHT22;34309;47.260;2.796;2022-08-01T09:36:21;26.60;32.40
48515;DHT22;34309;47.260;2.796;2022-08-01T09:38:47;26.60;32.60
48515;DHT22;34309;47.260;2.796;2022-08-01T09:41:13;26.60;32.70
48515;DHT22;34309;47.260;2.796;2022-08-01T09:43:39;26.60;32.70
48515;DHT22;34309;47.260;2.796;2022-08-01T09:46:10;26.60;32.80
48515;DHT22;34309;47.260;2.796;2022-08-01T09:48:37;26.60;32.60
48515;DHT22;34309;47.260;2.796;2022-08-01T09:51:05;26.60;32.70
48515;DHT22;34309;47.260;2.796;2022-08-01T09:53:45;26.60;32.60
48515;DHT22;34309;47.260;2.796;2022-08-01T09:56:12;26.60;32.60
48515;DHT22;34309;47.260;2.796;2022-08-01T09:58:58;26.60;32.60
48515;DHT22;34309;47.260;2.796;2022-08-01T10:01:24;26.60;32.50
48515;DHT22;34309;47.260;2.796;2022-08-01T10:04:08;26.60;32.70
48515;DHT22;34309;47.260;2.796;2022-08-01T10:06:34;26.60;32.60
48515;DHT22;34309;47.260;2.796;2022-08-01T10:09:01;26.60;32.50
48515;DHT22;34309;47.260;2.796;2022-08-01T10:11:28;26.70;32.60
48515;DHT22;34309;47.260;2.796;2022-08-01T10:13:56;26.60;32.80
48515;DHT22;34309;47.260;2.796;2022-08-01T10:16:25;26.70;32.80
48515;DHT22;34309;47.260;2.796;2022-08-01T10:18:53;26.70;32.80
48515;DHT22;34309;47.260;2.796;2022-08-01T10:21:20;26.70;32.90
48515;DHT22;34309;47.260;2.796;2022-08-01T10:23:46;26.70;32.90
48515;DHT22;34309;47.260;2.796;2022-08-01T10:26:12;26.70;32.80
48515;DHT22;34309;47.260;2.796;2022-08-01T10:28:40;26.60;32.80
48515;DHT22;34309;47.260;2.796;2022-08-01T10:31:07;26.70;32.90
48515;DHT22;34309;47.260;2.796;2022-08-01T10:33:33;26.70;32.90
48515;DHT22;34309;47.260;2.796;2022-08-01T10:36:01;26.70;32.80
48515;DHT22;34309;47.260;2.796;2022-08-01T10:38:28;26.70;32.80
48515;DHT22;34309;47.260;2.796;2022-08-01T10:40:54;26.70;33.00
48515;DHT22;34309;47.260;2.796;2022-08-01T10:43:22;26.70;33.10
48515;DHT22;34309;47.260;2.796;2022-08-01T10:45:49;26.70;33.00
48515;DHT22;34309;47.260;2.796;2022-08-01T10:48:20;26.70;32.90
48515;DHT22;34309;47.260;2.796;2022-08-01T10:50:52;26.70;33.00
48515;DHT22;34309;47.260;2.796;2022-08-01T10:53:20;26.70;32.80
48515;DHT22;34309;47.260;2.796;2022-08-01T10:58:29;26.70;32.80
48515;DHT22;34309;47.260;2.796;2022-08-01T11:01:17;26.80;32.80
48515;DHT22;34309;47.260;2.796;2022-08-01T11:04:02;26.70;32.90
48515;DHT22;34309;47.260;2.796;2022-08-01T11:09:03;26.70;32.80
48515;DHT22;34309;47.260;2.796;2022-08-01T11:11:29;26.80;32.90
48515;DHT22;34309;47.260;2.796;2022-08-01T11:16:31;26.70;32.80
48515;DHT22;34309;47.260;2.796;2022-08-01T11:18:57;26.70;32.80
48515;DHT22;34309;47.260;2.796;2022-08-01T11:27:31;26.80;32.90
48515;DHT22;34309;47.260;2.796;2022-08-01T11:35:15;26.80;32.70
48515;DHT22;34309;47.260;2.796;2022-08-01T11:37:41;26.80;32.80
48515;DHT22;34309;47.260;2.796;2022-08-01T11:40:25;26.80;32.70
48515;DHT22;34309;47.260;2.796;2022-08-01T11:45:50;26.80;32.70
48515;DHT22;34309;47.260;2.796;2022-08-01T11:48:26;26.80;32.60
48515;DHT22;34309;47.260;2.796;2022-08-01T11:50:53;26.80;32.80
48515;DHT22;34309;47.260;2.796;2022-08-01T11:53:19;26.80;32.80
48515;DHT22;34309;47.260;2.796;2022-08-01T11:55:53;26.80;32.70
48515;DHT22;34309;47.260;2.796;2022-08-01T11:58:24;26.90;32.90
48515;DHT22;34309;47.260;2.796;2022-08-01T12:00:54;26.90;32.90
48515;DHT22;34309;47.260;2.796;2022-08-01T12:03:31;26.80;32.80
48515;DHT22;34309;47.260;2.796;2022-08-01T12:05:58;26.80;32.60
48515;DHT22;34309;47.260;2.796;2022-08-01T12:08:25;26.80;32.70
48515;DHT22;34309;47.260;2.796;2022-08-01T12:10:52;26.80;32.70
48515;DHT22;34309;47.260;2.796;2022-08-01T12:13:17;26.90;32.80
48515;DHT22;34309;47.260;2.796;2022-08-01T12:15:43;26.90;32.80
48515;DHT22;34309;47.260;2.796;2022-08-01T12:18:10;26.90;32.70
48515;DHT22;34309;47.260;2.796;2022-08-01T12:20:41;26.90;32.50
48515;DHT22;34309;47.260;2.796;2022-08-01T12:23:09;26.90;32.60
48515;DHT22;34309;47.260;2.796;2022-08-01T12:25:36;26.90;32.60
48515;DHT22;34309;47.260;2.796;2022-08-01T12:28:04;26.90;32.60
48515;DHT22;34309;47.260;2.796;2022-08-01T12:30:32;26.90;32.70
48515;DHT22;34309;47.260;2.796;2022-08-01T12:33:07;26.90;32.70
48515;DHT22;34309;47.260;2.796;2022-08-01T12:35:34;26.90;32.70
48515;DHT22;34309;47.260;2.796;2022-08-01T12:38:05;26.90;32.60
48515;DHT22;34309;47.260;2.796;2022-08-01T12:40:33;26.90;32.60
48515;DHT22;34309;47.260;2.796;2022-08-01T12:43:01;27.00;32.70
48515;DHT22;34309;47.260;2.796;2022-08-01T12:45:34;27.00;32.60
48515;DHT22;34309;47.260;2.796;2022-08-01T12:48:00;27.00;32.80
48515;DHT22;34309;47.260;2.796;2022-08-01T12:50:28;27.00;32.60
48515;DHT22;34309;47.260;2.796;2022-08-01T12:52:55;27.00;32.60
48515;DHT22;34309;47.260;2.796;2022-08-01T12:55:23;27.00;32.60
48515;DHT22;34309;47.260;2.796;2022-08-01T12:58:09;27.00;32.70
48515;DHT22;34309;47.260;2.796;2022-08-01T13:00:36;27.00;32.70
48515;DHT22;34309;47.260;2.796;2022-08-01T13:08:15;27.00;32.50
48515;DHT22;34309;47.260;2.796;2022-08-01T13:10:41;27.00;32.50
48515;DHT22;34309;47.260;2.796;2022-08-01T13:13:08;27.00;32.40
48515;DHT22;34309;47.260;2.796;2022-08-01T13:15:37;27.00;32.50
48515;DHT22;34309;47.260;2.796;2022-08-01T13:18:24;27.00;32.50
48515;DHT22;34309;47.260;2.796;2022-08-01T13:21:10;27.00;32.40
48515;DHT22;34309;47.260;2.796;2022-08-01T13:23:37;27.00;32.40
48515;DHT22;34309;47.260;2.796;2022-08-01T13:26:03;27.10;32.60
48515;DHT22;34309;47.260;2.796;2022-08-01T13:28:30;27.10;32.60
48515;DHT22;34309;47.260;2.796;2022-08-01T13:31:06;27.10;32.60
48515;DHT22;34309;47.260;2.796;2022-08-01T13:33:46;27.10;32.50
48515;DHT22;34309;47.260;2.796;2022-08-01T13:36:13;27.10;32.60
48515;DHT22;34309;47.260;2.796;2022-08-01T13:38:39;27.10;32.40
48515;DHT22;34309;47.260;2.796;2022-08-01T13:41:24;27.10;32.40
48515;DHT22;34309;47.260;2.796;2022-08-01T13:43:50;27.10;32.50
48515;DHT22;34309;47.260;2.796;2022-08-01T13:46:16;27.10;32.60
48515;DHT22;34309;47.260;2.796;2022-08-01T13:48:42;27.10;32.40
48515;DHT22;34309;47.260;2.796;2022-08-01T13:51:07;27.10;32.40
48515;DHT22;34309;47.260;2.796;2022-08-01T13:53:33;27.10;32.60
48515;DHT22;34309;47.260;2.796;2022-08-01T13:56:00;27.10;32.60
48515;DHT22;34309;47.260;2.796;2022-08-01T13:58:26;27.10;32.50
48515;DHT22;34309;47.260;2.796;2022-08-01T14:00:53;27.10;32.80
48515;DHT22;34309;47.260;2.796;2022-08-01T14:03:19;27.10;32.40
48515;DHT22;34309;47.260;2.796;2022-08-01T14:05:45;27.10;32.70
48515;DHT22;34309;47.260;2.796;2022-08-01T14:08:11;27.10;32.60
48515;DHT22;34309;47.260;2.796;2022-08-01T14:10:36;27.10;32.60
48515;DHT22;34309;47.260;2.796;2022-08-01T14:13:02;27.10;32.60
48515;DHT22;34309;47.260;2.796;2022-08-01T14:15:29;27.10;32.60
48515;DHT22;34309;47.260;2.796;2022-08-01T14:17:55;27.10;32.80
48515;DHT22;34309;47.260;2.796;2022-08-01T14:20:21;27.10;32.50
48515;DHT22;34309;47.260;2.796;2022-08-01T14:22:47;27.10;32.50
48515;DHT22;34309;47.260;2.796;2022-08-01T14:25:12;27.20;32.70
48515;DHT22;34309;47.260;2.796;2022-08-01T14:27:38;27.20;32.70
48515;DHT22;34309;47.260;2.796;2022-08-01T14:30:07;27.20;32.70
48515;DHT22;34309;47.260;2.796;2022-08-01T14:32:34;27.10;32.60
48515;DHT22;34309;47.260;2.796;2022-08-01T14:35:03;27.20;32.70
48515;DHT22;34309;47.260;2.796;2022-08-01T14:37:29;27.20;32.80
48515;DHT22;34309;47.260;2.796;2022-08-01T14:39:59;27.20;32.80
48515;DHT22;34309;47.260;2.796;2022-08-01T14:42:25;27.20;32.80
48515;DHT22;34309;47.260;2.796;2022-08-01T14:44:51;27.10;32.60
48515;DHT22;34309;47.260;2.796;2022-08-01T14:47:17;27.20;32.80
48515;DHT22;34309;47.260;2.796;2022-08-01T14:49:43;27.20;32.60
48515;DHT22;34309;47.260;2.796;2022-08-01T14:52:08;27.20;32.60
48515;DHT22;34309;47.260;2.796;2022-08-01T14:54:34;27.20;32.80
48515;DHT22;34309;47.260;2.796;2022-08-01T14:57:00;27.20;32.80
48515;DHT22;34309;47.260;2.796;2022-08-01T14:59:26;27.20;32.80
48515;DHT22;34309;47.260;2.796;2022-08-01T15:01:51;27.20;32.60
48515;DHT22;34309;47.260;2.796;2022-08-01T15:04:17;27.20;32.60
48515;DHT22;34309;47.260;2.796;2022-08-01T15:06:45;27.20;32.60
48515;DHT22;34309;47.260;2.796;2022-08-01T15:09:10;27.20;32.70
48515;DHT22;34309;47.260;2.796;2022-08-01T15:11:36;27.20;32.70
48515;DHT22;34309;47.260;2.796;2022-08-01T15:14:03;27.20;32.70
48515;DHT22;34309;47.260;2.796;2022-08-01T15:16:47;27.20;32.50
48515;DHT22;34309;47.260;2.796;2022-08-01T15:19:13;27.30;32.70
48515;DHT22;34309;47.260;2.796;2022-08-01T15:21:39;27.30;32.70
48515;DHT22;34309;47.260;2.796;2022-08-01T15:24:05;27.30;32.80
48515;DHT22;34309;47.260;2.796;2022-08-01T15:26:31;27.30;32.70
48515;DHT22;34309;47.260;2.796;2022-08-01T15:28:56;27.30;32.70
48515;DHT22;34309;47.260;2.796;2022-08-01T15:31:22;27.30;33.50
48515;DHT22;34309;47.260;2.796;2022-08-01T15:33:48;27.30;32.70
48515;DHT22;34309;47.260;2.796;2022-08-01T15:36:14;27.20;32.60
48515;DHT22;34309;47.260;2.796;2022-08-01T15:38:40;27.30;32.60
48515;DHT22;34309;47.260;2.796;2022-08-01T15:41:05;27.30;32.70
48515;DHT22;34309;47.260;2.796;2022-08-01T15:43:31;27.30;32.50
48515;DHT22;34309;47.260;2.796;2022-08-01T15:45:57;27.30;32.70
48515;DHT22;34309;47.260;2.796;2022-08-01T15:48:23;27.30;32.70
48515;DHT22;34309;47.260;2.796;2022-08-01T15:50:49;27.30;32.60
48515;DHT22;34309;47.260;2.796;2022-08-01T15:53:15;27.30;32.80
48515;DHT22;34309;47.260;2.796;2022-08-01T15:55:41;27.30;32.60
48515;DHT22;34309;47.260;2.796;2022-08-01T15:58:08;27.30;32.60
48515;DHT22;34309;47.260;2.796;2022-08-01T16:00:34;27.30;32.60
48515;DHT22;34309;47.260;2.796;2022-08-01T16:03:00;27.30;32.60
48515;DHT22;34309;47.260;2.796;2022-08-01T16:05:26;27.30;32.70
48515;DHT22;34309;47.260;2.796;2022-08-01T16:07:51;27.30;32.70
48515;DHT22;34309;47.260;2.796;2022-08-01T16:10:17;27.30;33.40
48515;DHT22;34309;47.260;2.796;2022-08-01T16:12:43;27.40;32.60
48515;DHT22;34309;47.260;2.796;2022-08-01T16:15:09;27.40;32.80
48515;DHT22;34309;47.260;2.796;2022-08-01T16:17:35;27.40;32.50
48515;DHT22;34309;47.260;2.796;2022-08-01T16:20:00;27.40;32.70